SCX1013 KLAX-KTUS
Flight info
| Callsign | SCX1013 |
|---|---|
| Flight time | 1h 13m |
| Altitude | 39000 |
| Route | DOTSS2 CNERY BLH J50 GBN DINGO6 |
| Aircraft | B738/M-SDE2E3FGHIRWXY/LB1 |
Departure
| Time | 2026-05-04 16:33 |
|---|---|
| Airport | Los Angeles International Airport (KLAX) |
Arrival
| Time | 2026-05-04 17:47 |
|---|---|
| Airport | Tucson International Airport (KTUS) |
| Time | Latitude | Longitude | Altitude | Speed | Heading |
|---|---|---|---|---|---|
| 2026-05-04 15:56 | 33.94730 | -118.40065 | 93 ft | 0 kts | 263° |
| 2026-05-04 16:26 | 33.94722 | -118.40021 | 91 ft | 4 kts | 328° |
| 2026-05-04 16:26 | 33.94699 | -118.40014 | 91 ft | 0 kts | 0° |
| 2026-05-04 16:30 | 33.94748 | -118.40011 | 95 ft | 8 kts | 4° |
| 2026-05-04 16:31 | 33.94851 | -118.40067 | 94 ft | 10 kts | 305° |
| 2026-05-04 16:31 | 33.94933 | -118.40068 | 93 ft | 0 kts | 15° |
| 2026-05-04 16:32 | 33.95017 | -118.40078 | 95 ft | 7 kts | 330° |
| 2026-05-04 16:33 | 33.95015 | -118.40188 | 99 ft | 9 kts | 261° |
| 2026-05-04 16:33 | 33.94795 | -118.42071 | 1048 ft | 175 kts | 262° |
| 2026-05-04 16:34 | 33.94497 | -118.45085 | 4344 ft | 197 kts | 265° |
| 2026-05-04 16:34 | 33.94339 | -118.46866 | 5189 ft | 230 kts | 264° |
| 2026-05-04 16:35 | 33.93968 | -118.53006 | 7970 ft | 239 kts | 265° |
| 2026-05-04 16:35 | 33.93549 | -118.59197 | 10502 ft | 259 kts | 263° |
| 2026-05-04 16:36 | 33.93193 | -118.61437 | 10874 ft | 289 kts | 246° |
| 2026-05-04 16:36 | 33.89863 | -118.64497 | 10994 ft | 328 kts | 190° |
| 2026-05-04 16:37 | 33.85285 | -118.64048 | 10995 ft | 331 kts | 175° |
| 2026-05-04 16:37 | 33.83111 | -118.63129 | 11001 ft | 341 kts | 150° |
| 2026-05-04 16:37 | 33.79162 | -118.59769 | 12896 ft | 351 kts | 150° |
| 2026-05-04 16:38 | 33.75062 | -118.56418 | 14931 ft | 363 kts | 152° |
| 2026-05-04 16:39 | 33.69165 | -118.50369 | 17785 ft | 406 kts | 124° |
| 2026-05-04 16:39 | 33.67206 | -118.43828 | 19404 ft | 427 kts | 115° |
| 2026-05-04 16:40 | 33.65262 | -118.37003 | 20996 ft | 436 kts | 118° |
| 2026-05-04 16:40 | 33.64243 | -118.29607 | 22477 ft | 468 kts | 97° |
| 2026-05-04 16:41 | 33.64355 | -118.21666 | 23788 ft | 482 kts | 96° |
| 2026-05-04 16:41 | 33.64464 | -118.09451 | 25490 ft | 496 kts | 98° |
| 2026-05-04 16:42 | 33.64447 | -117.96892 | 27217 ft | 508 kts | 99° |
| 2026-05-04 16:43 | 33.64429 | -117.88336 | 28242 ft | 516 kts | 99° |
| 2026-05-04 16:43 | 33.64356 | -117.79669 | 29177 ft | 518 kts | 104° |
| 2026-05-04 16:43 | 33.63652 | -117.75517 | 29588 ft | 502 kts | 118° |
| 2026-05-04 16:44 | 33.59433 | -117.59353 | 31151 ft | 516 kts | 118° |
| 2026-05-04 16:45 | 33.57356 | -117.51030 | 31820 ft | 524 kts | 118° |
| 2026-05-04 16:46 | 33.54257 | -117.38463 | 32988 ft | 528 kts | 118° |
| 2026-05-04 16:46 | 33.52144 | -117.29979 | 33771 ft | 531 kts | 118° |
| 2026-05-04 16:47 | 33.50265 | -117.21363 | 34555 ft | 550 kts | 105° |
| 2026-05-04 16:47 | 33.50106 | -117.12150 | 35364 ft | 559 kts | 97° |
| 2026-05-04 16:48 | 33.50146 | -116.98333 | 36610 ft | 555 kts | 98° |
| 2026-05-04 16:48 | 33.50101 | -116.93712 | 37031 ft | 554 kts | 98° |
| 2026-05-04 16:49 | 33.49956 | -116.84479 | 37855 ft | 551 kts | 98° |
| 2026-05-04 16:49 | 33.49827 | -116.76906 | 38800 ft | 543 kts | 98° |
| 2026-05-04 16:50 | 33.49639 | -116.66306 | 39017 ft | 551 kts | 98° |
| 2026-05-04 16:50 | 33.49509 | -116.58639 | 38991 ft | 548 kts | 98° |
| 2026-05-04 16:51 | 33.49264 | -116.45091 | 38970 ft | 545 kts | 99° |
| 2026-05-04 16:52 | 33.48983 | -116.26873 | 38986 ft | 546 kts | 99° |
| 2026-05-04 16:53 | 33.48771 | -116.13249 | 38942 ft | 548 kts | 98° |
| 2026-05-04 16:53 | 33.49443 | -115.99651 | 38943 ft | 564 kts | 74° |
| 2026-05-04 16:54 | 33.50766 | -115.95236 | 38958 ft | 565 kts | 71° |
| 2026-05-04 16:55 | 33.58761 | -115.68676 | 38927 ft | 565 kts | 73° |
| 2026-05-04 16:56 | 33.61653 | -115.46022 | 38939 ft | 548 kts | 99° |
| 2026-05-04 16:57 | 33.61166 | -115.32308 | 38914 ft | 548 kts | 98° |
| 2026-05-04 16:58 | 33.60683 | -115.14041 | 38932 ft | 548 kts | 98° |
| 2026-05-04 17:00 | 33.59919 | -114.86863 | 38944 ft | 546 kts | 99° |
| 2026-05-04 17:01 | 33.58666 | -114.64334 | 38959 ft | 539 kts | 104° |
| 2026-05-04 17:02 | 33.56942 | -114.46463 | 38944 ft | 540 kts | 104° |
| 2026-05-04 17:02 | 33.56122 | -114.37467 | 38645 ft | 544 kts | 104° |
| 2026-05-04 17:03 | 33.55711 | -114.32944 | 38387 ft | 545 kts | 104° |
| 2026-05-04 17:03 | 33.55304 | -114.28480 | 38102 ft | 544 kts | 104° |
| 2026-05-04 17:03 | 33.54473 | -114.19453 | 37581 ft | 544 kts | 104° |
| 2026-05-04 17:04 | 33.53630 | -114.10406 | 37067 ft | 545 kts | 104° |
| 2026-05-04 17:04 | 33.52779 | -114.01359 | 36538 ft | 547 kts | 104° |
| 2026-05-04 17:05 | 33.51937 | -113.92445 | 36103 ft | 549 kts | 104° |
| 2026-05-04 17:05 | 33.51069 | -113.83319 | 35663 ft | 552 kts | 104° |
| 2026-05-04 17:06 | 33.50200 | -113.74165 | 35226 ft | 554 kts | 103° |
| 2026-05-04 17:06 | 33.49762 | -113.69569 | 35008 ft | 555 kts | 103° |
| 2026-05-04 17:07 | 33.48879 | -113.60356 | 34565 ft | 557 kts | 103° |
| 2026-05-04 17:07 | 33.48584 | -113.57296 | 34409 ft | 557 kts | 103° |
| 2026-05-04 17:07 | 33.47987 | -113.51130 | 34083 ft | 558 kts | 103° |
| 2026-05-04 17:07 | 33.47538 | -113.46512 | 33820 ft | 558 kts | 103° |
| 2026-05-04 17:08 | 33.47048 | -113.41909 | 33402 ft | 555 kts | 107° |
| 2026-05-04 17:08 | 33.44593 | -113.33412 | 32869 ft | 528 kts | 128° |
| 2026-05-04 17:08 | 33.42680 | -113.29732 | 32621 ft | 511 kts | 138° |
| 2026-05-04 17:09 | 33.40382 | -113.26569 | 32374 ft | 499 kts | 144° |
| 2026-05-04 17:09 | 33.38025 | -113.23525 | 32123 ft | 498 kts | 144° |
| 2026-05-04 17:09 | 33.35709 | -113.20525 | 31895 ft | 498 kts | 144° |
| 2026-05-04 17:10 | 33.31042 | -113.14390 | 31412 ft | 499 kts | 143° |
| 2026-05-04 17:10 | 33.24026 | -113.05053 | 30944 ft | 506 kts | 143° |
| 2026-05-04 17:11 | 33.19399 | -112.98886 | 30941 ft | 504 kts | 143° |
| 2026-05-04 17:12 | 33.12368 | -112.89553 | 30944 ft | 504 kts | 143° |
| 2026-05-04 17:13 | 33.00646 | -112.74052 | 30970 ft | 505 kts | 143° |
| 2026-05-04 17:14 | 32.95185 | -112.62929 | 30987 ft | 547 kts | 111° |
| 2026-05-04 17:14 | 32.94535 | -112.58430 | 30988 ft | 557 kts | 102° |
| 2026-05-04 17:15 | 32.93495 | -112.44572 | 30937 ft | 560 kts | 100° |
| 2026-05-04 17:16 | 32.91890 | -112.26170 | 30935 ft | 560 kts | 102° |
| 2026-05-04 17:17 | 32.90169 | -112.07726 | 30954 ft | 559 kts | 101° |
| 2026-05-04 17:17 | 32.88312 | -111.94276 | 30978 ft | 540 kts | 121° |
| 2026-05-04 17:18 | 32.86538 | -111.90495 | 31001 ft | 522 kts | 135° |
| 2026-05-04 17:18 | 32.81518 | -111.84792 | 30994 ft | 485 kts | 158° |
| 2026-05-04 17:19 | 32.75886 | -111.80345 | 30953 ft | 487 kts | 157° |
| 2026-05-04 17:19 | 32.70256 | -111.75746 | 30465 ft | 496 kts | 156° |
| 2026-05-04 17:20 | 32.64657 | -111.71093 | 29453 ft | 491 kts | 155° |
| 2026-05-04 17:20 | 32.59038 | -111.66452 | 28386 ft | 491 kts | 155° |
| 2026-05-04 17:20 | 32.56261 | -111.64057 | 27865 ft | 497 kts | 150° |
| 2026-05-04 17:21 | 32.51529 | -111.57859 | 26856 ft | 517 kts | 134° |
| 2026-05-04 17:21 | 32.47379 | -111.50945 | 25961 ft | 513 kts | 134° |
| 2026-05-04 17:22 | 32.45257 | -111.47558 | 25496 ft | 511 kts | 135° |
| 2026-05-04 17:22 | 32.43117 | -111.44192 | 25036 ft | 509 kts | 135° |
| 2026-05-04 17:23 | 32.36845 | -111.34320 | 23291 ft | 489 kts | 135° |
| 2026-05-04 17:23 | 32.34793 | -111.31164 | 22489 ft | 479 kts | 136° |
| 2026-05-04 17:23 | 32.30567 | -111.25124 | 20972 ft | 473 kts | 137° |
| 2026-05-04 17:24 | 32.28470 | -111.22143 | 20266 ft | 469 kts | 136° |
| 2026-05-04 17:24 | 32.22528 | -111.13116 | 18200 ft | 461 kts | 129° |
| 2026-05-04 17:25 | 32.20728 | -111.10029 | 17426 ft | 451 kts | 132° |
| 2026-05-04 17:25 | 32.16969 | -111.04353 | 15955 ft | 434 kts | 134° |
| 2026-05-04 17:26 | 32.12571 | -110.99966 | 14499 ft | 407 kts | 162° |
| 2026-05-04 17:26 | 32.04487 | -110.98369 | 12821 ft | 386 kts | 179° |
| 2026-05-04 17:27 | 31.99338 | -110.97745 | 11829 ft | 357 kts | 179° |
| 2026-05-04 17:27 | 31.94680 | -110.97161 | 10839 ft | 322 kts | 179° |
| 2026-05-04 17:28 | 31.90422 | -110.96524 | 9866 ft | 299 kts | 169° |
| 2026-05-04 17:29 | 31.86944 | -110.90982 | 8334 ft | 306 kts | 94° |
| 2026-05-04 17:29 | 31.87366 | -110.83768 | 7904 ft | 279 kts | 79° |
| 2026-05-04 17:30 | 31.91373 | -110.80141 | 7878 ft | 244 kts | 3° |
| 2026-05-04 17:31 | 31.94718 | -110.80154 | 7640 ft | 235 kts | 354° |
| 2026-05-04 17:31 | 31.99314 | -110.80483 | 6800 ft | 210 kts | 352° |
| 2026-05-04 17:32 | 32.02059 | -110.81365 | 6385 ft | 209 kts | 319° |
| 2026-05-04 17:33 | 32.04567 | -110.85416 | 5359 ft | 202 kts | 297° |
| 2026-05-04 17:33 | 32.05417 | -110.86736 | 4924 ft | 202 kts | 307° |
| 2026-05-04 17:34 | 32.08254 | -110.89975 | 4038 ft | 156 kts | 306° |
| 2026-05-04 17:34 | 32.09021 | -110.90803 | 4198 ft | 165 kts | 321° |
| 2026-05-04 17:35 | 32.12043 | -110.93497 | 4798 ft | 183 kts | 315° |
| 2026-05-04 17:35 | 32.14044 | -110.95331 | 5012 ft | 180 kts | 314° |
| 2026-05-04 17:35 | 32.15117 | -110.96135 | 5084 ft | 195 kts | 337° |
| 2026-05-04 17:36 | 32.16460 | -110.96101 | 5279 ft | 194 kts | 21° |
| 2026-05-04 17:36 | 32.17433 | -110.95112 | 5656 ft | 187 kts | 64° |
| 2026-05-04 17:36 | 32.17638 | -110.93657 | 6041 ft | 179 kts | 106° |
| 2026-05-04 17:36 | 32.17020 | -110.92472 | 6410 ft | 169 kts | 148° |
| 2026-05-04 17:37 | 32.15960 | -110.92141 | 6769 ft | 154 kts | 193° |
| 2026-05-04 17:37 | 32.15019 | -110.92666 | 6973 ft | 156 kts | 216° |
| 2026-05-04 17:37 | 32.14173 | -110.93500 | 6994 ft | 160 kts | 219° |
| 2026-05-04 17:37 | 32.13327 | -110.94337 | 6994 ft | 156 kts | 219° |
| 2026-05-04 17:38 | 32.12514 | -110.95145 | 6993 ft | 154 kts | 219° |
| 2026-05-04 17:38 | 32.11705 | -110.95967 | 6994 ft | 153 kts | 219° |
| 2026-05-04 17:38 | 32.11153 | -110.96521 | 6999 ft | 154 kts | 219° |
| 2026-05-04 17:38 | 32.10062 | -110.97611 | 7000 ft | 156 kts | 219° |
| 2026-05-04 17:39 | 32.08677 | -110.99000 | 6997 ft | 157 kts | 219° |
| 2026-05-04 17:39 | 32.07838 | -110.99827 | 6996 ft | 157 kts | 219° |
| 2026-05-04 17:39 | 32.07007 | -111.00662 | 6999 ft | 157 kts | 219° |
| 2026-05-04 17:40 | 32.06168 | -111.01465 | 6998 ft | 155 kts | 212° |
| 2026-05-04 17:40 | 32.05109 | -111.01661 | 6981 ft | 165 kts | 170° |
| 2026-05-04 17:40 | 32.04129 | -111.00882 | 6816 ft | 179 kts | 141° |
| 2026-05-04 17:40 | 32.03296 | -110.99793 | 6561 ft | 176 kts | 139° |
| 2026-05-04 17:41 | 32.02512 | -110.98742 | 6306 ft | 170 kts | 139° |
| 2026-05-04 17:41 | 32.01743 | -110.97704 | 6041 ft | 167 kts | 139° |
| 2026-05-04 17:41 | 32.00964 | -110.96674 | 5806 ft | 169 kts | 139° |
| 2026-05-04 17:41 | 32.00165 | -110.95641 | 5570 ft | 171 kts | 139° |
| 2026-05-04 17:42 | 31.99360 | -110.94613 | 5291 ft | 170 kts | 139° |
| 2026-05-04 17:42 | 31.98565 | -110.93596 | 5098 ft | 169 kts | 136° |
| 2026-05-04 17:42 | 31.98100 | -110.92312 | 4990 ft | 182 kts | 99° |
| 2026-05-04 17:42 | 31.98496 | -110.90849 | 4989 ft | 197 kts | 55° |
| 2026-05-04 17:43 | 31.99543 | -110.89797 | 5018 ft | 199 kts | 38° |
| 2026-05-04 17:43 | 32.00662 | -110.88809 | 4999 ft | 201 kts | 38° |
| 2026-05-04 17:43 | 32.01763 | -110.87825 | 4989 ft | 195 kts | 39° |
| 2026-05-04 17:43 | 32.02836 | -110.86889 | 4995 ft | 194 kts | 38° |
| 2026-05-04 17:44 | 32.03935 | -110.85935 | 4958 ft | 201 kts | 32° |
| 2026-05-04 17:44 | 32.05265 | -110.85326 | 4800 ft | 206 kts | 12° |
| 2026-05-04 17:44 | 32.06607 | -110.85414 | 4599 ft | 183 kts | 332° |
| 2026-05-04 17:44 | 32.07550 | -110.86249 | 4311 ft | 163 kts | 294° |
| 2026-05-04 17:45 | 32.07851 | -110.87415 | 4155 ft | 141 kts | 265° |
| 2026-05-04 17:45 | 32.07813 | -110.88564 | 3911 ft | 140 kts | 265° |
| 2026-05-04 17:45 | 32.08052 | -110.89692 | 3674 ft | 151 kts | 297° |
| 2026-05-04 17:45 | 32.08781 | -110.90650 | 3364 ft | 165 kts | 314° |
| 2026-05-04 17:46 | 32.09653 | -110.91602 | 2949 ft | 172 kts | 308° |
| 2026-05-04 17:46 | 32.10472 | -110.92605 | 2670 ft | 164 kts | 311° |
| 2026-05-04 17:46 | 32.11225 | -110.93496 | 2626 ft | 138 kts | 316° |
| 2026-05-04 17:46 | 32.11822 | -110.94203 | 2604 ft | 86 kts | 315° |
| 2026-05-04 17:47 | 32.12030 | -110.94445 | 2591 ft | 12 kts | 318° |
| 2026-05-04 17:47 | 32.12065 | -110.94458 | 2594 ft | 9 kts | 10° |
| 2026-05-04 17:47 | 32.12127 | -110.94400 | 2586 ft | 11 kts | 45° |
| 2026-05-04 17:47 | 32.12151 | -110.94329 | 2598 ft | 10 kts | 114° |
| 2026-05-04 17:48 | 32.12109 | -110.94276 | 2599 ft | 8 kts | 135° |
| 2026-05-04 17:48 | 32.12067 | -110.94228 | 2600 ft | 8 kts | 136° |
| 2026-05-04 17:48 | 32.12028 | -110.94181 | 2601 ft | 8 kts | 135° |
| 2026-05-04 17:48 | 32.12007 | -110.94127 | 2603 ft | 8 kts | 69° |
| 2026-05-04 17:49 | 32.12030 | -110.94072 | 2605 ft | 8 kts | 90° |
| 2026-05-04 17:49 | 32.12013 | -110.94014 | 2607 ft | 7 kts | 88° |
| 2026-05-04 17:49 | 32.12035 | -110.93980 | 2607 ft | 2 kts | 36° |
| 2026-05-04 17:49 | 32.12049 | -110.93967 | 2607 ft | 2 kts | 36° |
| 2026-05-04 17:50 | 32.12055 | -110.93962 | 2607 ft | 0 kts | 36° |